Time;durP1;ratioP1;P1;durP2;ratioP2;P2;SDS_P1;SDS_P2;PMS_P1;PMS_P2;Temp;Humidity;BMP_temperature;BMP_pressure;BME280_temperature;BME280_humidity;BME280_pressure;Samples;Min_cycle;Max_cycle;Signal;HPM_P1;HPM_P2
2022/11/18 00:01:37;;;;;;;15.10;10.50;;;;;;;1.90;99.24;99928.58;107397;1270;60045;-70
2022/11/18 00:04:24;;;;;;;16.60;9.40;;;;;;;1.93;99.02;99930.84;107356;1271;72218;-69
2022/11/18 00:06:52;;;;;;;17.00;11.20;;;;;;;1.94;99.70;99939.05;107415;1272;61943;-68
2022/11/18 00:09:21;;;;;;;14.40;9.80;;;;;;;1.88;99.63;99940.20;107374;1269;58687;-68
2022/11/18 00:14:37;;;;;;;16.90;11.10;;;;;;;1.99;99.61;99940.67;107594;1267;61431;-69
2022/11/18 00:17:06;;;;;;;15.40;10.10;;;;;;;1.99;99.29;99941.02;107463;1269;69699;-68
2022/11/18 00:19:38;;;;;;;17.20;11.90;;;;;;;1.99;99.74;99945.67;107234;1275;73751;-68
2022/11/18 00:22:11;;;;;;;18.40;11.90;;;;;;;2.07;100.00;99946.98;107317;1268;61003;-68
2022/11/18 00:24:40;;;;;;;17.10;11.20;;;;;;;2.08;99.95;99941.60;107377;1271;57729;-69
2022/11/18 00:27:09;;;;;;;17.90;12.00;;;;;;;2.18;100.00;99932.90;107495;1269;74155;-68
2022/11/18 00:29:37;;;;;;;18.20;12.10;;;;;;;2.25;100.00;99925.14;107580;1261;72162;-70
2022/11/18 00:32:06;;;;;;;16.70;11.20;;;;;;;2.29;100.00;99922.53;107558;1258;59125;-69
2022/11/18 00:34:35;;;;;;;15.30;9.60;;;;;;;2.35;100.00;99916.55;107571;1269;71342;-70
2022/11/18 00:37:04;;;;;;;14.10;9.20;;;;;;;2.35;98.34;99916.36;107552;1269;61089;-69
2022/11/18 00:39:32;;;;;;;13.70;9.30;;;;;;;2.30;96.49;99912.52;107407;1269;58187;-69
2022/11/18 00:44:48;;;;;;;11.40;7.20;;;;;;;2.13;93.44;99898.59;107685;1268;61282;-70
2022/11/18 00:47:16;;;;;;;12.50;8.00;;;;;;;2.03;93.56;99896.38;107500;1269;69043;-70
2022/11/18 00:49:45;;;;;;;12.20;8.10;;;;;;;1.92;93.89;99890.87;107532;1267;63257;-70
2022/11/18 00:52:14;;;;;;;12.60;7.40;;;;;;;1.88;93.66;99883.36;107559;1267;62090;-69
2022/11/18 00:54:42;;;;;;;14.70;7.40;;;;;;;1.84;93.49;99890.77;107524;1262;60905;-70
2022/11/18 00:57:11;;;;;;;14.10;8.80;;;;;;;1.78;93.47;99891.23;107475;1268;64327;-70
2022/11/18 00:59:40;;;;;;;14.40;8.70;;;;;;;1.69;93.90;99889.11;107519;1265;72169;-70
2022/11/18 01:02:08;;;;;;;13.30;8.40;;;;;;;1.66;94.58;99888.23;107438;1271;70586;-70
2022/11/18 01:04:37;;;;;;;14.20;9.70;;;;;;;1.68;93.89;99883.67;107428;1272;63019;-70
2022/11/18 01:07:06;;;;;;;15.90;9.80;;;;;;;1.58;94.82;99869.21;107331;1275;61908;-70
2022/11/18 01:09:34;;;;;;;15.00;10.40;;;;;;;1.59;99.80;99866.91;107447;1272;61155;-69
2022/11/18 01:14:50;;;;;;;14.80;10.00;;;;;;;1.64;99.37;99885.94;107643;1264;72163;-69
2022/11/18 01:17:19;;;;;;;15.60;10.50;;;;;;;1.66;99.86;99892.02;107586;1264;60574;-68
2022/11/18 01:19:48;;;;;;;17.60;11.30;;;;;;;1.69;99.48;99886.67;107449;1265;73900;-69
2022/11/18 01:22:16;;;;;;;15.10;10.40;;;;;;;1.81;99.60;99883.52;107546;1262;60760;-70
2022/11/18 01:24:45;;;;;;;14.90;10.60;;;;;;;1.81;99.69;99883.02;107456;1269;58237;-71
2022/11/18 01:27:14;;;;;;;16.10;10.40;;;;;;;1.82;99.31;99894.96;107590;1269;63739;-71
2022/11/18 01:29:43;;;;;;;15.80;10.30;;;;;;;1.86;98.28;99905.77;107524;1268;72327;-70
2022/11/18 01:32:11;;;;;;;17.10;10.80;;;;;;;1.91;97.22;99912.77;107583;1266;58862;-72
2022/11/18 01:34:55;;;;;;;13.30;9.70;;;;;;;1.80;98.18;99910.38;107508;1263;63077;-71
2022/11/18 01:37:24;;;;;;;15.20;10.60;;;;;;;1.77;97.20;99906.88;107470;1261;58211;-70
2022/11/18 01:39:52;;;;;;;15.30;10.80;;;;;;;1.69;97.62;99894.08;107614;1272;61256;-69
2022/11/18 01:42:21;;;;;;;16.50;10.90;;;;;;;1.67;99.24;99901.91;107572;1268;64169;-68
2022/11/18 01:45:19;;;;;;;18.30;12.10;;;;;;;1.61;100.00;99909.56;107637;1267;61463;-69
2022/11/18 01:48:03;;;;;;;17.60;11.90;;;;;;;1.58;100.00;99907.46;107616;1273;70489;-69
2022/11/18 01:50:36;;;;;;;18.60;12.40;;;;;;;1.56;100.00;99911.67;107642;1260;63987;-68
2022/11/18 01:53:19;;;;;;;15.70;11.00;;;;;;;1.55;100.00;99918.92;107574;1271;58304;-69
2022/11/18 01:55:50;;;;;;;15.30;10.30;;;;;;;1.51;100.00;99921.38;107454;1268;61292;-69
2022/11/18 01:58:37;;;;;;;15.60;11.40;;;;;;;1.43;99.98;99925.19;107382;1267;64232;-70
2022/11/18 02:01:07;;;;;;;17.80;11.90;;;;;;;1.40;99.37;99930.47;107460;1272;72986;-71
2022/11/18 02:03:37;;;;;;;17.80;11.40;;;;;;;1.34;99.84;99925.25;107722;1272;67285;-69
2022/11/18 02:06:09;;;;;;;18.50;12.00;;;;;;;1.29;99.99;99918.79;107691;1266;63041;-68
2022/11/18 02:08:39;;;;;;;17.30;11.80;;;;;;;1.28;100.00;99912.65;107696;1265;62084;-69
2022/11/18 02:14:07;;;;;;;22.20;14.40;;;;;;;1.30;100.00;99907.11;107527;1269;73414;-71
2022/11/18 02:17:12;;;;;;;21.10;14.00;;;;;;;1.49;100.00;99909.95;107741;1261;72030;-69
2022/11/18 02:19:47;;;;;;;21.20;12.60;;;;;;;1.55;100.00;99904.17;107705;1266;70735;-69
2022/11/18 02:23:07;;;;;;;20.80;13.20;;;;;;;1.52;100.00;99904.66;107680;1267;74109;-70
2022/11/18 02:26:19;;;;;;;20.80;13.10;;;;;;;1.54;100.00;99905.77;107695;1264;61550;-69
2022/11/18 02:29:00;;;;;;;17.80;12.20;;;;;;;1.44;100.00;99897.36;107601;1273;59504;-68
2022/11/18 02:31:55;;;;;;;19.10;13.00;;;;;;;1.53;100.00;99893.81;107585;1266;74313;-69
2022/11/18 02:34:53;;;;;;;17.00;11.90;;;;;;;1.33;100.00;99895.27;107833;1258;61820;-69
2022/11/18 02:37:33;;;;;;;18.60;13.20;;;;;;;1.29;100.00;99898.58;107557;1269;70310;-68
2022/11/18 02:40:26;;;;;;;19.00;12.20;;;;;;;1.25;100.00;99903.05;107580;1262;74111;-68
2022/11/18 02:43:12;;;;;;;30.40;16.70;;;;;;;1.13;100.00;99907.71;107583;1269;59517;-68
2022/11/18 02:45:47;;;;;;;17.10;11.50;;;;;;;1.03;100.00;99909.21;107714;1259;58221;-69
2022/11/18 02:48:19;;;;;;;17.30;11.70;;;;;;;1.00;100.00;99909.18;107563;1273;73524;-68
2022/11/18 02:50:50;;;;;;;17.80;12.10;;;;;;;0.93;100.00;99913.61;107653;1261;70186;-68
2022/11/18 02:53:23;;;;;;;17.70;12.40;;;;;;;0.88;100.00;99923.09;107578;1271;70470;-68
2022/11/18 02:55:53;;;;;;;19.90;11.90;;;;;;;0.87;100.00;99928.27;107638;1266;73707;-68
2022/11/18 02:58:24;;;;;;;20.80;12.80;;;;;;;0.95;100.00;99926.02;107728;1257;62648;-67
2022/11/18 03:00:59;;;;;;;18.60;12.10;;;;;;;1.04;100.00;99932.48;107732;1263;58165;-68
2022/11/18 03:03:34;;;;;;;19.90;13.60;;;;;;;1.15;100.00;99923.06;107614;1262;72474;-69
2022/11/18 03:06:20;;;;;;;20.10;12.50;;;;;;;1.25;100.00;99913.17;107636;1262;72450;-69
2022/11/18 03:09:03;;;;;;;21.80;13.80;;;;;;;1.24;100.00;99916.63;107642;1267;60297;-69
2022/11/18 03:12:54;;;;;;;22.10;14.10;;;;;;;1.41;100.00;99916.02;107697;1270;73758;-69
2022/11/18 03:15:46;;;;;;;21.10;12.40;;;;;;;1.58;100.00;99922.55;107056;1282;62387;-68
2022/11/18 03:18:25;;;;;;;18.20;11.90;;;;;;;1.52;100.00;99933.66;107224;1273;57753;-68
2022/11/18 03:21:07;;;;;;;19.30;12.80;;;;;;;1.51;100.00;99927.17;107555;1274;63153;-68
2022/11/18 03:23:43;;;;;;;20.80;12.30;;;;;;;1.50;100.00;99927.60;107861;1260;72165;-69
2022/11/18 03:26:40;;;;;;;18.60;12.40;;;;;;;1.42;100.00;99946.88;107659;1266;69995;-69
2022/11/18 03:29:24;;;;;;;16.80;11.40;;;;;;;1.32;100.00;99957.60;107718;1265;73020;-68
2022/11/18 03:32:09;;;;;;;17.00;11.30;;;;;;;1.30;100.00;99968.83;107588;1267;61361;-68
2022/11/18 03:34:48;;;;;;;19.00;13.00;;;;;;;1.27;100.00;99969.48;107500;1269;58296;-69
2022/11/18 03:37:19;;;;;;;21.80;13.50;;;;;;;1.47;100.00;99963.58;107597;1263;74415;-69
2022/11/18 03:39:54;;;;;;;22.10;14.20;;;;;;;1.63;100.00;99967.31;107596;1273;62082;-68
2022/11/18 03:42:48;;;;;;;26.20;14.60;;;;;;;1.64;100.00;99968.65;107596;1264;59805;-68
2022/11/18 03:45:28;;;;;;;22.90;13.70;;;;;;;1.69;100.00;99969.61;107847;1262;74906;-68
2022/11/18 03:48:11;;;;;;;18.60;11.30;;;;;;;1.74;100.00;99960.41;107606;1267;61755;-68
2022/11/18 03:51:10;;;;;;;17.80;11.10;;;;;;;1.73;100.00;99950.54;107616;1265;61352;-68
2022/11/18 03:53:46;;;;;;;22.00;13.30;;;;;;;1.58;100.00;99947.80;107721;1266;74265;-68
2022/11/18 03:56:20;;;;;;;23.10;12.90;;;;;;;1.66;100.00;99946.24;107695;1263;71193;-68
2022/11/18 03:59:10;;;;;;;24.30;14.40;;;;;;;1.77;100.00;99951.53;107583;1266;69224;-68
2022/11/18 04:01:58;;;;;;;23.80;14.30;;;;;;;2.03;100.00;99949.94;107526;1262;62938;-70
2022/11/18 04:04:28;;;;;;;24.70;14.50;;;;;;;2.14;100.00;99951.30;107387;1273;58315;-69
2022/11/18 04:07:15;;;;;;;25.10;14.10;;;;;;;2.13;100.00;99953.73;107533;1269;61326;-69
2022/11/18 04:09:54;;;;;;;19.80;13.50;;;;;;;2.24;100.00;99950.79;107485;1268;64094;-70
2022/11/18 04:12:25;;;;;;;23.10;14.90;;;;;;;2.29;100.00;99944.16;107766;1257;71418;-69
2022/11/18 04:14:54;;;;;;;24.00;14.30;;;;;;;2.26;100.00;99944.14;107355;1275;59860;-70
2022/11/18 04:17:27;;;;;;;20.90;13.60;;;;;;;2.29;100.00;99946.25;107503;1269;72116;-70
2022/11/18 04:19:55;;;;;;;;;;;;;;;2.18;99.81;99944.04;107771;1261;61962;-69
2022/11/18 04:22:24;;;;;;;21.50;13.00;;;;;;;2.04;98.48;99955.58;107625;1270;57688;-69
2022/11/18 04:24:53;;;;;;;22.60;13.60;;;;;;;2.00;99.25;99965.70;107674;1267;63819;-70
2022/11/18 04:27:22;;;;;;;21.40;14.00;;;;;;;2.04;100.00;99970.84;107612;1265;72138;-70
2022/11/18 04:29:50;;;;;;;22.60;14.90;;;;;;;2.08;100.00;99965.64;107620;1266;69506;-70
2022/11/18 04:32:19;;;;;;;25.40;15.20;;;;;;;2.12;100.00;99964.97;107646;1268;63668;-69
2022/11/18 04:34:48;;;;;;;27.60;16.30;;;;;;;2.22;100.00;99962.08;107738;1266;61264;-69
2022/11/18 04:37:16;;;;;;;23.50;15.10;;;;;;;2.27;100.00;99970.58;107691;1266;60039;-71
2022/11/18 04:39:45;;;;;;;19.20;13.60;;;;;;;2.29;100.00;99967.88;107697;1266;63675;-68
2022/11/18 04:42:14;;;;;;;21.90;13.20;;;;;;;2.30;100.00;99966.95;107559;1260;323427;-69
2022/11/18 04:44:42;;;;;;;27.60;14.20;;;;;;;2.09;98.36;99962.34;107667;1266;69764;-69
2022/11/18 04:47:11;;;;;;;21.30;12.60;;;;;;;2.00;99.57;99954.37;107593;1262;74109;-70
2022/11/18 04:49:40;;;;;;;26.10;15.20;;;;;;;2.11;99.69;99945.09;107616;1270;58641;-71
2022/11/18 04:52:09;;;;;;;20.70;13.00;;;;;;;2.19;100.00;99952.59;107643;1270;61055;-70
2022/11/18 04:54:37;;;;;;;23.90;14.10;;;;;;;2.04;100.00;99957.42;107609;1261;74139;-69
2022/11/18 04:57:06;;;;;;;21.10;13.90;;;;;;;1.97;100.00;99964.81;107793;1266;61501;-71
2022/11/18 04:59:35;;;;;;;21.00;13.40;;;;;;;1.93;100.00;99957.63;107688;1262;60033;-70
2022/11/18 05:02:04;;;;;;;24.50;14.00;;;;;;;1.94;100.00;99957.42;107499;1268;71388;-70
2022/11/18 05:04:34;;;;;;;22.20;13.90;;;;;;;1.91;100.00;99955.00;107502;1270;58224;-66
2022/11/18 05:07:05;;;;;;;23.90;15.00;;;;;;;1.92;100.00;99967.66;107478;1266;58222;-70
2022/11/18 05:09:34;;;;;;;23.10;13.50;;;;;;;1.82;99.98;99971.38;107433;1272;74324;-66
2022/11/18 05:14:50;;;;;;;29.10;17.00;;;;;;;1.70;99.98;99983.98;107561;1266;70951;-69
2022/11/18 05:17:18;;;;;;;30.90;16.20;;;;;;;1.77;100.00;99994.29;107635;1265;72845;-67
2022/11/18 05:19:47;;;;;;;24.30;16.70;;;;;;;2.07;100.00;100008.14;107672;1262;57717;-67
2022/11/18 05:22:16;;;;;;;25.70;15.30;;;;;;;2.04;100.00;100018.59;107684;1266;59960;-68
2022/11/18 05:24:45;;;;;;;19.90;13.80;;;;;;;2.07;100.00;100017.92;107573;1262;74252;-68
2022/11/18 05:27:14;;;;;;;22.80;14.30;;;;;;;2.09;100.00;100015.77;107667;1260;72032;-68
2022/11/18 05:29:43;;;;;;;30.20;15.50;;;;;;;2.17;100.00;100020.04;107569;1266;59522;-68
2022/11/18 05:32:12;;;;;;;23.70;15.30;;;;;;;2.21;100.00;100015.19;107565;1260;73825;-70
2022/11/18 05:34:41;;;;;;;26.80;15.70;;;;;;;2.34;100.00;100020.89;107535;1263;60149;-69
2022/11/18 05:37:10;;;;;;;26.80;14.30;;;;;;;2.44;100.00;100029.34;107515;1265;57617;-71
2022/11/18 05:39:39;;;;;;;23.50;14.10;;;;;;;2.36;100.00;100027.17;107554;1263;63729;-68
2022/11/18 05:44:56;;;;;;;21.70;13.90;;;;;;;2.43;100.00;100019.94;107551;1272;70551;-68
2022/11/18 05:47:26;;;;;;;20.80;14.50;;;;;;;2.38;99.57;100016.92;107510;1261;64817;-76
2022/11/18 05:49:55;;;;;;;21.40;15.00;;;;;;;2.29;98.54;100012.37;107602;1263;57847;-68
2022/11/18 05:52:24;;;;;;;26.10;14.60;;;;;;;2.19;98.86;100006.16;107649;1266;61140;-69
2022/11/18 05:54:52;;;;;;;25.10;16.00;;;;;;;2.24;99.46;99998.35;107646;1268;74300;-67
2022/11/18 05:57:21;;;;;;;26.30;16.30;;;;;;;2.28;99.81;99985.61;107815;1263;61279;-69
2022/11/18 05:59:50;;;;;;;34.00;17.20;;;;;;;2.36;99.81;99990.40;107681;1262;59415;-69
2022/11/18 06:02:22;;;;;;;24.30;14.90;;;;;;;2.30;97.98;99993.42;107538;1271;73760;-70
2022/11/18 06:04:58;;;;;;;27.10;14.00;;;;;;;2.23;96.10;99997.39;107537;1265;57758;-67
2022/11/18 06:07:47;;;;;;;24.50;14.70;;;;;;;2.25;97.65;99999.34;107655;1270;60353;-69
2022/11/18 06:10:28;;;;;;;23.10;15.00;;;;;;;2.19;96.83;100001.20;107679;1263;74334;-70
2022/11/18 06:13:03;;;;;;;29.90;19.20;;;;;;;2.26;98.50;99994.86;107628;1266;61286;-67
2022/11/18 06:15:38;;;;;;;39.00;21.40;;;;;;;2.42;99.84;99991.49;107518;1268;60088;-69
2022/11/18 06:18:11;;;;;;;37.40;18.90;;;;;;;2.49;97.91;99985.96;107669;1262;62532;-69
2022/11/18 06:20:40;;;;;;;23.90;15.50;;;;;;;2.59;97.10;99988.17;107647;1270;58497;-68
2022/11/18 06:23:09;;;;;;;25.60;15.90;;;;;;;2.56;95.83;99982.66;107463;1271;57681;-68
2022/11/18 06:25:39;;;;;;;29.80;15.50;;;;;;;2.66;96.54;99980.07;107526;1263;64135;-68
2022/11/18 06:28:10;;;;;;;26.40;14.40;;;;;;;2.69;94.62;99986.33;107533;1262;61590;-69
2022/11/18 06:30:39;;;;;;;26.30;13.90;;;;;;;2.72;95.13;99992.70;107629;1265;71013;-69
2022/11/18 06:33:07;;;;;;;19.10;11.90;;;;;;;2.62;91.72;99995.77;107477;1264;73551;-68
2022/11/18 06:35:36;;;;;;;26.20;13.60;;;;;;;2.50;91.05;99991.41;107612;1262;58292;-69
2022/11/18 06:38:05;;;;;;;21.10;11.50;;;;;;;2.57;91.95;99995.33;107508;1264;61235;-68
2022/11/18 06:40:34;;;;;;;21.30;11.70;;;;;;;2.50;89.88;100003.29;107643;1262;74892;-69
2022/11/18 06:48:50;;;;;;;22.50;14.00;;;;;;;2.72;90.67;100020.36;107527;1262;73807;-69
2022/11/18 06:51:19;;;;;;;20.90;12.70;;;;;;;2.88;93.39;100028.66;107427;1264;57769;-69
2022/11/18 06:53:48;;;;;;;23.40;13.80;;;;;;;2.91;92.02;100031.09;107537;1268;57720;-72
2022/11/18 06:56:20;;;;;;;24.10;15.70;;;;;;;3.01;92.28;100022.67;107510;1268;63777;-71
2022/11/18 06:58:58;;;;;;;21.20;13.30;;;;;;;3.14;96.43;100016.98;107523;1264;61624;-70
2022/11/18 07:01:30;;;;;;;22.50;13.40;;;;;;;3.07;90.94;100016.53;107510;1268;68933;-69
2022/11/18 07:04:00;;;;;;;21.90;13.80;;;;;;;2.85;89.26;100012.30;107525;1264;74127;-69
2022/11/18 07:06:33;;;;;;;16.90;11.80;;;;;;;2.85;89.09;100007.64;107494;1260;61976;-68
2022/11/18 07:09:05;;;;;;;19.00;12.40;;;;;;;2.80;88.48;99998.30;107629;1261;60245;-69
2022/11/18 07:11:34;;;;;;;20.80;12.40;;;;;;;2.81;88.75;99983.13;107579;1271;63260;-70
2022/11/18 07:14:03;;;;;;;19.80;12.00;;;;;;;2.87;88.21;99957.02;107689;1257;69604;-70
2022/11/18 07:16:34;;;;;;;14.90;10.30;;;;;;;2.83;86.59;99948.95;107647;1257;68610;-68
2022/11/18 07:19:10;;;;;;;17.90;9.80;;;;;;;2.72;86.83;99954.17;107572;1267;73262;-69
2022/11/18 07:21:39;;;;;;;16.30;11.20;;;;;;;2.80;87.81;99950.67;107620;1266;60936;-70
2022/11/18 07:24:13;;;;;;;23.70;12.80;;;;;;;2.90;87.83;99957.01;107478;1264;59731;-69
2022/11/18 07:26:43;;;;;;;16.40;11.20;;;;;;;3.21;88.54;99950.92;107560;1261;74961;-70
2022/11/18 07:29:11;;;;;;;15.20;10.80;;;;;;;3.40;87.37;99950.53;107563;1262;71118;-70
2022/11/18 07:31:40;;;;;;;14.70;8.50;;;;;;;3.45;84.61;99951.98;107541;1265;67908;-69
2022/11/18 07:34:09;;;;;;;23.70;12.50;;;;;;;3.54;83.88;99962.19;107585;1270;72943;-71
2022/11/18 07:36:37;;;;;;;14.40;10.30;;;;;;;3.51;83.73;99969.95;107610;1265;62510;-69
2022/11/18 07:39:06;;;;;;;17.30;11.30;;;;;;;3.59;87.43;99983.08;107577;1263;58330;-70
2022/11/18 07:41:35;;;;;;;15.50;10.30;;;;;;;3.54;82.80;99985.95;107499;1269;62889;-70
2022/11/18 07:44:05;;;;;;;14.40;10.30;;;;;;;3.47;83.64;99986.83;107698;1266;71743;-70
2022/11/18 07:46:36;;;;;;;16.50;9.60;;;;;;;3.37;83.76;99976.55;107487;1270;70701;-70
2022/11/18 07:49:07;;;;;;;16.30;10.30;;;;;;;3.45;85.58;99972.69;107359;1264;74275;-70
2022/11/18 07:51:39;;;;;;;14.50;9.70;;;;;;;3.62;85.18;99979.30;107499;1271;62239;-71
2022/11/18 07:54:10;;;;;;;14.70;10.30;;;;;;;3.48;83.18;99978.85;107298;1264;58353;-69
2022/11/18 07:56:40;;;;;;;16.90;10.60;;;;;;;3.54;86.90;99966.82;107256;1266;73310;-71
2022/11/18 07:59:08;;;;;;;19.30;11.60;;;;;;;3.69;87.33;99962.55;107497;1257;72127;-71
2022/11/18 08:01:37;;;;;;;22.00;12.90;;;;;;;3.80;87.67;99965.02;107428;1270;59326;-70
2022/11/18 08:04:10;;;;;;;18.70;12.40;;;;;;;3.79;85.63;99962.17;107514;1266;72016;-70
2022/11/18 08:06:39;;;;;;;28.80;13.70;;;;;;;3.70;84.65;99964.05;107528;1265;61283;-70
2022/11/18 08:09:08;;;;;;;19.40;12.60;;;;;;;3.54;83.52;99965.76;107461;1261;58170;-69
2022/11/18 08:11:37;;;;;;;21.60;13.20;;;;;;;3.68;87.16;99961.20;107651;1272;63065;-71
2022/11/18 08:14:06;;;;;;;24.80;15.40;;;;;;;3.64;86.01;99955.45;107523;1263;60701;-71
2022/11/18 08:16:35;;;;;;;23.00;14.20;;;;;;;3.68;85.01;99952.79;107588;1262;69573;-71
2022/11/18 08:19:03;;;;;;;19.90;13.30;;;;;;;3.83;86.30;99952.61;107460;1275;63376;-70
2022/11/18 08:21:32;;;;;;;30.90;18.20;;;;;;;3.89;86.35;99962.47;107596;1268;57745;-69
2022/11/18 08:24:00;;;;;;;24.10;13.60;;;;;;;3.77;84.89;99966.22;107460;1268;61084;-70
2022/11/18 08:26:29;;;;;;;21.40;13.50;;;;;;;3.73;86.32;99963.88;107362;1274;74214;-70
2022/11/18 08:28:58;;;;;;;21.00;12.70;;;;;;;3.76;85.07;99965.61;107558;1267;60730;-72
2022/11/18 08:31:29;;;;;;;20.00;12.60;;;;;;;3.76;84.56;99977.48;107605;1267;60002;-71
2022/11/18 08:34:02;;;;;;;19.60;12.40;;;;;;;3.66;86.55;99977.70;107636;1263;62432;-72
2022/11/18 08:36:33;;;;;;;;;;;;;;;3.71;87.77;99983.13;107408;1270;58182;-71
2022/11/18 08:39:06;;;;;;;17.10;11.70;;;;;;;3.73;88.50;99986.99;107571;1274;60885;-69
2022/11/18 08:41:41;;;;;;;17.30;11.50;;;;;;;3.95;87.81;99985.53;107694;1263;74680;-67
2022/11/18 08:44:14;;;;;;;15.00;9.20;;;;;;;3.87;85.15;99985.65;107617;1265;61351;-69
2022/11/18 08:46:46;;;;;;;14.90;9.40;;;;;;;3.82;85.24;99994.21;107724;1261;70321;-70
2022/11/18 08:49:15;;;;;;;12.20;8.40;;;;;;;3.76;84.11;99995.56;107598;1261;73415;-69
2022/11/18 08:51:44;;;;;;;19.80;10.40;;;;;;;3.87;83.91;99996.19;107639;1268;57725;-70
2022/11/18 08:54:13;;;;;;;15.70;10.10;;;;;;;3.90;82.31;99995.84;107550;1270;61212;-69
2022/11/18 08:56:41;;;;;;;17.40;10.40;;;;;;;3.79;83.84;99999.56;107531;1264;74728;-67
2022/11/18 08:59:10;;;;;;;13.80;9.60;;;;;;;3.75;83.56;99995.47;107736;1259;61307;-68
2022/11/18 09:01:42;;;;;;;15.80;10.40;;;;;;;3.66;82.55;99985.46;107461;1272;60285;-70
2022/11/18 09:04:11;;;;;;;14.40;9.50;;;;;;;3.59;83.22;99979.83;107593;1267;71372;-67
2022/11/18 09:06:39;;;;;;;13.80;9.90;;;;;;;3.41;83.04;99972.20;107474;1265;60106;-68
2022/11/18 09:09:08;;;;;;;19.00;11.00;;;;;;;3.25;83.37;99961.86;107528;1265;58380;-73
2022/11/18 09:11:38;;;;;;;16.20;9.00;;;;;;;3.30;84.49;99960.90;107493;1271;63954;-70
2022/11/18 09:14:10;;;;;;;18.00;11.40;;;;;;;3.13;85.00;99956.15;107709;1261;60836;-69
2022/11/18 09:16:59;;;;;;;17.50;11.70;;;;;;;3.08;86.44;99959.15;107548;1268;59788;-70
2022/11/18 09:19:28;;;;;;;18.30;11.30;;;;;;;3.23;85.82;99957.52;107700;1265;71513;-69
2022/11/18 09:22:15;;;;;;;21.80;11.40;;;;;;;3.26;85.91;99951.52;107543;1265;57777;-70
2022/11/18 09:24:44;;;;;;;20.80;12.00;;;;;;;3.37;86.33;99944.33;107582;1268;61057;-70
2022/11/18 09:27:12;;;;;;;19.20;11.70;;;;;;;3.43;85.44;99935.73;107649;1262;64068;-70
2022/11/18 09:29:44;;;;;;;23.20;12.30;;;;;;;3.43;85.84;99926.48;107612;1263;72401;-70
2022/11/18 09:32:14;;;;;;;23.60;12.20;;;;;;;3.52;85.42;99922.52;107521;1264;70374;-73
2022/11/18 09:34:42;;;;;;;19.70;13.00;;;;;;;3.50;84.62;99921.22;107451;1265;74262;-71
2022/11/18 09:37:12;;;;;;;21.10;12.40;;;;;;;3.27;85.90;99917.35;107523;1266;61442;-70
2022/11/18 09:39:40;;;;;;;21.00;13.80;;;;;;;3.29;86.48;99916.59;107650;1265;58316;-73
2022/11/18 09:42:24;;;;;;;20.40;13.10;;;;;;;3.38;87.43;99912.77;107526;1268;63920;-73
2022/11/18 09:45:02;;;;;;;21.20;11.90;;;;;;;3.49;86.28;99906.86;107809;1262;62699;-73
2022/11/18 09:47:36;;;;;;;19.10;12.20;;;;;;;3.50;86.52;99904.00;107447;1266;70129;-74
2022/11/18 09:50:21;;;;;;;19.70;12.80;;;;;;;3.47;86.94;99899.41;107536;1263;74922;-73
2022/11/18 09:53:23;;;;;;;18.70;13.00;;;;;;;3.26;87.47;99899.49;107378;1265;58486;-73
2022/11/18 09:55:53;;;;;;;19.50;13.30;;;;;;;3.35;88.70;99901.25;107661;1270;57598;-74
2022/11/18 09:58:40;;;;;;;27.10;15.40;;;;;;;3.42;89.01;99902.20;107481;1262;63032;-73
2022/11/18 10:01:16;;;;;;;22.70;13.70;;;;;;;3.55;91.32;99899.77;107635;1263;60836;-72
2022/11/18 10:03:46;;;;;;;21.00;11.30;;;;;;;3.65;89.53;99896.47;107501;1269;70537;-74
2022/11/18 10:06:30;;;;;;;22.50;13.80;;;;;;;3.55;89.41;99894.82;107433;1265;63828;-73
2022/11/18 10:09:08;;;;;;;19.40;13.60;;;;;;;3.48;88.72;99889.55;107524;1272;57721;-74
2022/11/18 10:11:47;;;;;;;20.90;11.40;;;;;;;3.33;89.20;99880.52;107686;1259;61855;-74
2022/11/18 10:14:51;;;;;;;19.60;13.10;;;;;;;3.40;90.36;99878.91;107492;1267;63981;-73
2022/11/18 10:18:00;;;;;;;23.00;13.60;;;;;;;3.42;90.30;99880.02;107548;1260;60990;-72
2022/11/18 10:20:55;;;;;;;21.70;13.00;;;;;;;3.61;91.47;99873.77;107519;1271;60103;-72
2022/11/18 10:23:32;;;;;;;20.70;12.80;;;;;;;3.49;89.29;99869.47;107422;1271;73926;-72
2022/11/18 10:26:01;;;;;;;24.20;13.70;;;;;;;3.60;91.78;99870.77;107447;1268;61879;-73
2022/11/18 10:28:29;;;;;;;22.10;12.60;;;;;;;3.65;90.33;99873.92;107509;1272;60440;-72
2022/11/18 10:31:10;;;;;;;28.70;13.90;;;;;;;3.70;89.58;99871.73;107667;1265;63821;-71
2022/11/18 10:33:39;;;;;;;22.00;11.90;;;;;;;3.76;89.41;99871.52;107597;1263;60907;-72
2022/11/18 10:36:27;;;;;;;23.80;12.90;;;;;;;3.80;89.05;99878.04;107684;1258;68658;-72
2022/11/18 10:39:15;;;;;;;25.60;13.90;;;;;;;3.95;90.47;99889.39;107493;1269;73872;-72
2022/11/18 10:41:51;;;;;;;20.70;13.00;;;;;;;3.91;90.07;99889.30;107544;1272;57767;-75
2022/11/18 10:44:40;;;;;;;22.20;11.30;;;;;;;3.81;89.62;99891.08;107599;1264;59657;-72
2022/11/18 10:47:29;;;;;;;23.60;12.00;;;;;;;3.71;90.39;99885.80;107553;1265;72184;-73
2022/11/18 10:50:33;;;;;;;26.70;12.40;;;;;;;3.83;91.44;99892.67;107655;1266;71330;-72
2022/11/18 10:53:03;;;;;;;20.20;11.40;;;;;;;3.82;90.68;99886.73;107411;1263;70921;-72
2022/11/18 10:55:35;;;;;;;;;;;;;;;3.82;91.05;99888.65;107378;1265;63742;-73
2022/11/18 10:58:17;;;;;;;24.50;12.70;;;;;;;3.85;91.14;99891.38;107471;1265;60963;-73
2022/11/18 11:00:48;;;;;;;22.20;11.90;;;;;;;3.93;92.62;99895.39;107397;1265;58223;-75
2022/11/18 11:03:36;;;;;;;22.30;12.80;;;;;;;3.97;92.15;99897.92;107362;1268;63802;-72
2022/11/18 11:06:37;;;;;;;19.00;11.20;;;;;;;3.84;92.07;99896.27;107388;1259;60868;-71
2022/11/18 11:09:26;;;;;;;24.00;11.20;;;;;;;3.86;92.33;99896.67;107196;1266;70541;-73
2022/11/18 11:12:15;;;;;;;16.90;9.50;;;;;;;3.89;92.10;99898.36;107401;1268;64066;-72
2022/11/18 11:14:53;;;;;;;22.90;12.80;;;;;;;3.96;92.26;99889.02;107332;1267;58310;-72
2022/11/18 11:17:42;;;;;;;21.40;13.00;;;;;;;4.02;92.54;99885.02;107284;1264;58417;-73
2022/11/18 11:20:20;;;;;;;26.30;13.40;;;;;;;4.19;95.59;99883.88;107314;1266;72564;-73
2022/11/18 11:22:49;;;;;;;25.30;14.10;;;;;;;4.28;94.06;99882.46;107398;1269;61507;-74
2022/11/18 11:25:31;;;;;;;30.20;14.00;;;;;;;4.35;92.88;99880.34;107356;1263;60035;-72
2022/11/18 11:28:28;;;;;;;23.30;13.90;;;;;;;4.30;90.83;99875.83;107510;1265;63294;-72
2022/11/18 11:31:26;;;;;;;29.50;15.80;;;;;;;4.28;90.87;99889.18;107405;1265;61868;-71
2022/11/18 11:34:38;;;;;;;29.00;14.40;;;;;;;4.31;90.03;99884.73;107433;1263;61568;-73
2022/11/18 11:37:59;;;;;;;25.60;14.50;;;;;;;4.27;91.88;99884.63;107514;1265;75071;-72
2022/11/18 11:41:01;;;;;;;25.60;14.40;;;;;;;4.21;93.32;99889.60;107630;1270;61921;-73
2022/11/18 11:44:09;;;;;;;29.50;16.00;;;;;;;4.22;93.26;99884.56;107333;1266;68239;-72
2022/11/18 11:50:11;;;;;;;29.80;16.90;;;;;;;4.23;91.87;99880.21;107382;1262;58130;-72
2022/11/18 11:52:57;;;;;;;29.40;16.40;;;;;;;4.22;93.22;99879.20;107474;1261;61287;-72
2022/11/18 11:56:11;;;;;;;25.90;15.40;;;;;;;4.29;93.39;99878.60;107504;1265;73682;-71
2022/11/18 11:58:56;;;;;;;27.90;16.20;;;;;;;4.25;92.88;99884.73;107689;1266;72597;-71
2022/11/18 12:02:02;;;;;;;30.80;16.80;;;;;;;4.27;93.86;99882.52;107482;1266;61575;-72
2022/11/18 12:04:51;;;;;;;34.20;17.00;;;;;;;4.31;93.05;99882.47;107604;1270;63268;-72
2022/11/18 12:07:27;;;;;;;31.50;16.90;;;;;;;4.34;93.09;99880.08;107297;1261;57747;-72
2022/11/18 12:10:19;;;;;;;28.50;16.00;;;;;;;4.36;94.10;99887.17;107392;1260;57843;-72
2022/11/18 12:13:34;;;;;;;29.50;15.60;;;;;;;4.44;92.92;99887.91;107486;1264;63800;-72
2022/11/18 12:16:08;;;;;;;28.00;16.60;;;;;;;4.41;93.74;99885.17;107704;1261;71471;-72
2022/11/18 12:18:45;;;;;;;32.50;17.30;;;;;;;4.46;92.26;99882.95;107483;1267;70730;-72
2022/11/18 12:21:44;;;;;;;27.40;16.90;;;;;;;4.50;94.92;99873.90;107513;1266;74342;-72
2022/11/18 12:24:29;;;;;;;33.90;17.30;;;;;;;4.53;95.49;99873.91;107521;1264;58174;-74